Thomaston, ME

4:38 AM EST on December 18, 2014 (GMT -0500)
Wiscasset | Change Station
CLOSE
Current Station
Airport
Location: Wiscasset,
Elevation: 69 ft
Nearby Weather Stations

Elev 69 ft 43.96 °N, 69.71 °W | Updated 27 minutes ago

Overcast
Overcast
35 °F
Feels Like 32 °F
N
4
Wind Variable Wind from Variable

Today
High -- | Low -- °F
--% Chance of Precip.
Yesterday
High -- | Low -- °F
Precip. -- in
7:06 AM 3:59 PM
Waning Crescent, 16% visible
Pressure 29.63 in
Visibility 10.0 miles
Clouds Scattered Clouds 600 ft
Overcast 3200 ft
Windchill 32 °F
Dew Point 34 °F
Humidity 96%
Rainfall 0.02 in
Snow Depth Not available.
UV 0 out of 12
Pollen .10 out of 12
Air Quality Not available.
Flu Activity Not available.
SPECI KIWI 180911Z AUTO VRB03KT 10SM UP SCT006 OVC032 02/01 A2963 RMK AO2 P0000 T00170011

More Conditions Fewer Conditions

Pressure 29.63 in
Visibility 10.0 miles
Clouds Scattered Clouds 600 ft
Overcast 3200 ft
Windchill 32 °F
Dew Point 34 °F
Humidity 96%
Rainfall 0.02 in
Snow Depth Not available.
UV 0 out of 12
Pollen .10 out of 12
Air Quality Not available.
Flu Activity Not available.
SPECI KIWI 180911Z AUTO VRB03KT 10SM UP SCT006 OVC032 02/01 A2963 RMK AO2 P0000 T00170011

More Conditions Fewer Conditions

10-Day Weather Forecast

Almanac

Astronomy

Dec. 18, 2014 Rise Set
Actual Time
Civil Twilight
Nautical Twilight
Astronomical Twilight
Moon
Length of Visible Light
Length of Day
Tomorrow will be .
, % of the Moon is Illuminated

Today's Extremes

State Highs State Lows

Community

WunderPhotos

Upload Photos

1,778,907 photos uploaded!

WunderBlogs® & News

Nearby

Air Quality

  Air Quality AQ Index Pollutant
Not available.

Snow Depth

Station Depth Elevation

Earthquake Activity

City Distance Mag. Time & Date
Minimum magnitude displayed is 2.5.

Coastal Water Temperatures

Place Temperature

Nearby Weather Stations